createdAt,value
2022-11-09T00:00:02.041Z,0
2022-11-09T00:05:07.102Z,0
2022-11-09T00:15:19.280Z,0
2022-11-09T00:20:25.365Z,0
2022-11-09T00:25:31.455Z,0
2022-11-09T00:30:37.543Z,0
2022-11-09T00:40:49.735Z,0
2022-11-09T00:45:55.831Z,0
2022-11-09T00:51:01.917Z,0
2022-11-09T00:56:08.008Z,0
2022-11-09T01:06:20.193Z,0
2022-11-09T01:11:26.286Z,0
2022-11-09T01:16:32.366Z,0
2022-11-09T01:21:38.457Z,0
2022-11-09T01:26:44.552Z,0
2022-11-09T01:31:50.642Z,0
2022-11-09T01:36:56.734Z,0
2022-11-09T01:42:02.823Z,0
2022-11-09T01:47:08.914Z,0
2022-11-09T01:52:15.015Z,0
2022-11-09T01:57:21.102Z,0
2022-11-09T02:02:27.192Z,0
2022-11-09T02:07:33.284Z,0
2022-11-09T02:12:39.449Z,0
2022-11-09T02:17:45.587Z,0
2022-11-09T02:22:51.747Z,0
2022-11-09T02:27:57.887Z,0
2022-11-09T02:33:04.053Z,0
2022-11-09T02:38:10.196Z,0
2022-11-09T02:43:16.354Z,0
2022-11-09T02:48:22.522Z,0
2022-11-09T02:53:28.649Z,0
2022-11-09T02:58:34.811Z,0
2022-11-09T03:03:40.957Z,0
2022-11-09T03:08:47.118Z,0
2022-11-09T03:13:53.284Z,0
2022-11-09T03:29:12.070Z,0
2022-11-09T03:34:18.337Z,0
2022-11-09T03:39:24.613Z,0
2022-11-09T03:44:30.868Z,0
2022-11-09T03:49:37.123Z,0
2022-11-09T03:54:43.399Z,0
2022-11-09T03:59:49.669Z,0
2022-11-09T04:04:55.930Z,0
2022-11-09T04:10:02.192Z,0
2022-11-09T04:15:08.458Z,0
2022-11-09T04:20:14.721Z,0
2022-11-09T04:25:21.199Z,0
2022-11-09T04:30:27.676Z,0
2022-11-09T04:35:34.141Z,0
2022-11-09T04:40:40.622Z,0
2022-11-09T04:45:47.094Z,0
2022-11-09T04:50:53.552Z,0
2022-11-09T04:56:00.038Z,0
2022-11-09T05:01:06.508Z,0
2022-11-09T05:06:12.967Z,0
2022-11-09T05:11:19.446Z,0
2022-11-09T05:16:25.919Z,0
2022-11-09T05:21:32.387Z,132
2022-11-09T05:26:38.867Z,132
2022-11-09T05:31:45.881Z,132
2022-11-09T05:36:52.888Z,0
2022-11-09T05:41:59.898Z,0
2022-11-09T05:47:06.887Z,0
2022-11-09T05:52:13.893Z,0
2022-11-09T05:57:20.912Z,0
2022-11-09T06:02:27.918Z,0
2022-11-09T06:07:34.922Z,132
2022-11-09T06:12:41.920Z,132
2022-11-09T06:17:48.931Z,0
2022-11-09T06:22:55.949Z,0
2022-11-09T06:28:02.947Z,4
2022-11-09T06:33:09.940Z,8
2022-11-09T06:38:17.793Z,136
2022-11-09T06:43:25.626Z,136
2022-11-09T06:48:32.238Z,140
2022-11-09T06:53:38.710Z,136
2022-11-09T07:03:51.653Z,140
2022-11-09T07:08:58.121Z,140
2022-11-09T07:14:04.587Z,140
2022-11-09T07:19:11.069Z,140
2022-11-09T07:24:17.532Z,144
2022-11-09T07:29:24.054Z,152
2022-11-09T07:34:30.478Z,156
2022-11-09T07:39:36.949Z,168
2022-11-09T07:44:43.418Z,160
2022-11-09T07:49:49.888Z,176
2022-11-09T07:54:56.369Z,192
2022-11-09T08:00:02.836Z,204
2022-11-09T08:05:09.305Z,192
2022-11-09T08:10:15.780Z,180
2022-11-09T08:15:22.249Z,196
2022-11-09T08:20:28.724Z,188
2022-11-09T08:25:35.192Z,200
2022-11-09T08:30:41.677Z,208
2022-11-09T08:35:48.131Z,208
2022-11-09T08:40:54.605Z,212
2022-11-09T08:46:01.077Z,196
2022-11-09T08:51:07.545Z,196
2022-11-09T08:56:14.573Z,200
2022-11-09T09:01:21.581Z,212
2022-11-09T09:06:28.582Z,252
2022-11-09T09:11:35.583Z,264
2022-11-09T09:16:42.594Z,268
2022-11-09T09:21:49.596Z,272
2022-11-09T09:26:56.604Z,284
2022-11-09T09:32:03.603Z,276
2022-11-09T09:37:10.619Z,260
2022-11-09T09:42:17.626Z,248
2022-11-09T09:47:24.625Z,224
2022-11-09T09:52:31.632Z,220
2022-11-09T09:57:38.637Z,208
2022-11-09T10:02:46.491Z,220
2022-11-09T10:07:54.318Z,224
2022-11-09T10:13:02.142Z,264
2022-11-09T10:18:09.977Z,244
2022-11-09T10:28:25.633Z,244
2022-11-09T10:33:33.491Z,280
2022-11-09T10:38:41.280Z,304
2022-11-09T10:48:56.954Z,288
2022-11-09T10:54:04.783Z,136
2022-11-09T11:04:20.450Z,148
2022-11-09T11:09:26.668Z,168
2022-11-09T11:14:32.760Z,188
2022-11-09T11:19:38.845Z,168
2022-11-09T11:24:44.934Z,132
2022-11-09T11:29:51.053Z,188
2022-11-09T11:34:57.121Z,160
2022-11-09T11:40:03.210Z,188
2022-11-09T11:45:09.303Z,184
2022-11-09T11:50:15.408Z,196
2022-11-09T11:55:21.475Z,128
2022-11-09T12:00:27.571Z,88
2022-11-09T12:05:33.700Z,152
2022-11-09T12:10:39.761Z,108
2022-11-09T12:15:45.861Z,76
2022-11-09T12:20:51.944Z,104
2022-11-09T12:25:58.073Z,176
2022-11-09T12:31:04.123Z,256
2022-11-09T12:36:10.217Z,236
2022-11-09T12:41:16.300Z,248
2022-11-09T12:46:22.399Z,208
2022-11-09T12:51:28.489Z,228
2022-11-09T12:56:34.577Z,204
2022-11-09T13:01:40.663Z,212
2022-11-09T13:06:46.765Z,204
2022-11-09T13:11:52.848Z,200
2022-11-09T13:16:59.002Z,196
2022-11-09T13:22:05.165Z,192
2022-11-09T13:27:11.461Z,184
2022-11-09T13:32:17.449Z,184
2022-11-09T13:37:23.691Z,176
2022-11-09T13:42:29.996Z,172
2022-11-09T13:47:35.959Z,176
2022-11-09T13:52:42.196Z,168
2022-11-09T13:57:48.410Z,168
2022-11-09T14:02:54.520Z,164
2022-11-09T14:08:00.690Z,164
2022-11-09T14:13:06.842Z,160
2022-11-09T14:18:13.021Z,156
2022-11-09T14:23:19.309Z,152
2022-11-09T14:28:25.486Z,152
2022-11-09T14:33:31.813Z,152
2022-11-09T14:38:38.118Z,152
2022-11-09T14:43:44.347Z,152
2022-11-09T14:48:50.601Z,144
2022-11-09T14:53:56.869Z,140
2022-11-09T14:59:02.089Z,136
2022-11-09T15:04:08.262Z,136
2022-11-09T15:14:20.401Z,132
2022-11-09T15:19:26.523Z,132
2022-11-09T15:24:32.552Z,128
2022-11-09T15:29:38.670Z,132
2022-11-09T15:34:44.758Z,128
2022-11-09T15:39:50.722Z,128
2022-11-09T15:44:56.896Z,128
2022-11-09T15:50:03.030Z,128
2022-11-09T15:55:09.127Z,128
2022-11-09T16:00:15.191Z,128
2022-11-09T16:05:21.301Z,128
2022-11-09T16:10:27.299Z,128
2022-11-09T16:15:33.330Z,128
2022-11-09T16:20:39.476Z,128
2022-11-09T16:25:45.489Z,128
2022-11-09T16:30:51.584Z,132
2022-11-09T16:35:57.739Z,132
2022-11-09T16:41:03.778Z,132
2022-11-09T16:46:09.887Z,132
2022-11-09T16:51:16.068Z,132
2022-11-09T16:56:22.074Z,128
2022-11-09T17:01:28.224Z,128
2022-11-09T17:06:34.274Z,128
2022-11-09T17:11:40.430Z,128
2022-11-09T17:16:46.583Z,132
2022-11-09T17:21:52.728Z,132
2022-11-09T17:26:58.890Z,132
2022-11-09T17:32:05.049Z,132
2022-11-09T17:37:11.233Z,128
2022-11-09T17:42:16.420Z,132
2022-11-09T17:47:22.441Z,128
2022-11-09T17:52:28.531Z,0
2022-11-09T17:57:34.632Z,0
2022-11-09T18:02:40.774Z,0
2022-11-09T18:07:46.808Z,0
2022-11-09T18:12:52.894Z,0
2022-11-09T18:17:58.988Z,0
2022-11-09T18:23:05.084Z,0
2022-11-09T18:28:11.164Z,0
2022-11-09T18:33:17.281Z,0
2022-11-09T18:38:23.455Z,0
2022-11-09T18:43:29.450Z,0
2022-11-09T18:48:35.543Z,0
2022-11-09T18:53:41.629Z,0
2022-11-09T18:58:47.795Z,0
2022-11-09T19:03:53.811Z,0
2022-11-09T19:08:59.895Z,0
2022-11-09T19:14:06.048Z,0
2022-11-09T19:24:18.208Z,0
2022-11-09T19:29:24.270Z,0
2022-11-09T19:34:30.351Z,0
2022-11-09T19:39:36.458Z,0
2022-11-09T19:44:41.622Z,0
2022-11-09T19:49:47.664Z,0
2022-11-09T19:54:52.761Z,0
2022-11-09T19:59:58.850Z,0
2022-11-09T20:05:04.969Z,0
2022-11-09T20:10:11.106Z,0
2022-11-09T20:15:17.128Z,0
2022-11-09T20:20:23.213Z,0
2022-11-09T20:25:29.311Z,0
2022-11-09T20:30:35.399Z,0
2022-11-09T20:35:41.487Z,0
2022-11-09T20:40:47.602Z,0
2022-11-09T20:45:53.678Z,0
2022-11-09T20:50:59.766Z,0
2022-11-09T20:56:05.847Z,0
2022-11-09T21:01:11.938Z,0
2022-11-09T21:06:18.127Z,0
2022-11-09T21:11:24.197Z,0
2022-11-09T21:16:30.303Z,0
2022-11-09T21:21:36.326Z,0
2022-11-09T21:26:42.400Z,0
2022-11-09T21:31:48.527Z,0
2022-11-09T21:36:54.613Z,0
2022-11-09T21:47:06.778Z,0
2022-11-09T21:52:12.856Z,0
2022-11-09T21:57:18.941Z,0
2022-11-09T22:02:25.120Z,0
2022-11-09T22:07:31.136Z,0
2022-11-09T22:12:37.229Z,0
2022-11-09T22:17:43.313Z,0
2022-11-09T22:22:49.406Z,0
2022-11-09T22:27:55.509Z,0
2022-11-09T22:33:01.594Z,0
2022-11-09T22:38:07.673Z,0
2022-11-09T22:43:13.772Z,0
2022-11-09T22:48:19.859Z,0
2022-11-09T22:53:25.988Z,0
2022-11-09T22:58:31.072Z,0
2022-11-09T23:03:37.180Z,0
2022-11-09T23:08:43.340Z,0
2022-11-09T23:13:49.350Z,0
2022-11-09T23:18:54.456Z,0
2022-11-09T23:24:00.569Z,0
2022-11-09T23:29:06.747Z,0
2022-11-09T23:34:12.803Z,0
2022-11-09T23:39:18.829Z,0
2022-11-09T23:44:24.913Z,0
2022-11-09T23:49:31.055Z,0
2022-11-09T23:54:37.094Z,0
2022-11-09T23:59:43.212Z,0
